Time;durP1;ratioP1;P1;durP2;ratioP2;P2;SDS_P1;SDS_P2;PMS_P1;PMS_P2;Temp;Humidity;BMP_temperature;BMP_pressure;BME280_temperature;BME280_humidity;BME280_pressure;Samples;Min_cycle;Max_cycle;Signal;HPM_P1;HPM_P2
2023/09/27 00:00:17;;;;;;;21.13;17.92;;;;;;;;;;5071536;28;20127;-69
2023/09/27 00:02:44;;;;;;;24.80;19.02;;;;;;;;;;5065858;28;20057;-68
2023/09/27 00:05:11;;;;;;;28.15;20.10;;;;;;;;;;5066583;28;20518;-69
2023/09/27 00:07:38;;;;;;;21.58;18.27;;;;;;;;;;5074457;28;20058;-70
2023/09/27 00:10:05;;;;;;;25.17;18.42;;;;;;;;;;5057848;28;20055;-68
2023/09/27 00:12:32;;;;;;;24.00;18.30;;;;;;;;;;5074291;28;20128;-69
2023/09/27 00:14:58;;;;;;;24.70;18.08;;;;;;;;;;5053787;28;20068;-70
2023/09/27 00:17:24;;;;;;;23.55;18.23;;;;;;;;;;5052453;28;20052;-68
2023/09/27 00:19:50;;;;;;;21.40;16.60;;;;;;;;;;5073770;28;20048;-69
2023/09/27 00:22:16;;;;;;;26.92;18.42;;;;;;;;;;5071142;28;20045;-69
2023/09/27 00:24:42;;;;;;;22.23;17.23;;;;;;;;;;5072782;28;20048;-69
2023/09/27 00:27:10;;;;;;;22.25;17.88;;;;;;;;;;5071945;28;20496;-68
2023/09/27 00:29:37;;;;;;;21.73;17.10;;;;;;;;;;5070085;28;20126;-68
2023/09/27 00:32:03;;;;;;;21.48;16.33;;;;;;;;;;5070351;28;20060;-65
2023/09/27 00:34:29;;;;;;;26.70;17.83;;;;;;;;;;5073110;28;20048;-66
2023/09/27 00:36:55;;;;;;;21.30;17.73;;;;;;;;;;5072955;28;20103;-67
2023/09/27 00:39:21;;;;;;;24.40;17.30;;;;;;;;;;5053400;28;20052;-68
2023/09/27 00:41:48;;;;;;;21.40;17.77;;;;;;;;;;5054805;28;20052;-68
2023/09/27 00:44:14;;;;;;;21.98;17.52;;;;;;;;;;5073554;28;20550;-68
2023/09/27 00:46:40;;;;;;;23.77;17.85;;;;;;;;;;5054329;28;20571;-68
2023/09/27 00:49:08;;;;;;;22.38;18.02;;;;;;;;;;5069912;28;20051;-68
2023/09/27 00:51:35;;;;;;;20.92;16.02;;;;;;;;;;5069538;28;20526;-68
2023/09/27 00:54:01;;;;;;;23.27;18.08;;;;;;;;;;5054733;28;20136;-68
2023/09/27 00:56:27;;;;;;;19.27;16.90;;;;;;;;;;5046746;28;20083;-66
2023/09/27 00:58:54;;;;;;;23.88;17.90;;;;;;;;;;5069151;28;20048;-69
2023/09/27 01:01:20;;;;;;;24.30;17.25;;;;;;;;;;5051708;28;20061;-67
2023/09/27 01:03:47;;;;;;;24.38;18.75;;;;;;;;;;5072075;28;20504;-67
2023/09/27 01:06:14;;;;;;;23.42;19.75;;;;;;;;;;5070017;28;20511;-68
2023/09/27 01:08:41;;;;;;;22.45;18.25;;;;;;;;;;5054939;28;20064;-67
2023/09/27 01:11:07;;;;;;;21.08;17.05;;;;;;;;;;5032783;28;20057;-67
2023/09/27 01:13:33;;;;;;;22.98;17.40;;;;;;;;;;5035249;28;20135;-68
2023/09/27 01:15:59;;;;;;;23.75;18.83;;;;;;;;;;5051795;28;20057;-68
2023/09/27 01:18:28;;;;;;;22.55;17.67;;;;;;;;;;5060154;28;20045;-68
2023/09/27 01:20:54;;;;;;;22.02;16.98;;;;;;;;;;5053550;28;20048;-68
2023/09/27 01:23:21;;;;;;;20.83;15.77;;;;;;;;;;5058842;28;20154;-67
2023/09/27 01:25:49;;;;;;;21.50;17.35;;;;;;;;;;5056830;28;20081;-68
2023/09/27 01:28:15;;;;;;;20.00;16.20;;;;;;;;;;5052449;28;20072;-68
2023/09/27 01:30:42;;;;;;;22.58;16.45;;;;;;;;;;5035086;28;20404;-67
2023/09/27 01:33:09;;;;;;;22.40;16.80;;;;;;;;;;5051646;28;20060;-67
2023/09/27 01:35:35;;;;;;;23.45;16.13;;;;;;;;;;5051480;28;20128;-67
2023/09/27 01:38:02;;;;;;;23.75;16.00;;;;;;;;;;5051156;28;20053;-67
2023/09/27 01:40:31;;;;;;;21.33;17.80;;;;;;;;;;5051974;28;20051;-68
2023/09/27 01:43:01;;;;;;;22.08;15.93;;;;;;;;;;5034131;28;20057;-68
2023/09/27 01:45:27;;;;;;;19.27;16.07;;;;;;;;;;5051950;28;20060;-67
2023/09/27 01:47:55;;;;;;;18.70;16.50;;;;;;;;;;5056014;28;20052;-67
2023/09/27 01:50:24;;;;;;;19.10;15.20;;;;;;;;;;5060030;28;20407;-68
2023/09/27 01:52:54;;;;;;;20.98;17.73;;;;;;;;;;5055743;28;20056;-67
2023/09/27 01:55:20;;;;;;;24.30;17.07;;;;;;;;;;5035451;28;20096;-67
2023/09/27 01:57:47;;;;;;;23.65;17.08;;;;;;;;;;5066474;28;20075;-67
2023/09/27 02:00:14;;;;;;;21.65;16.00;;;;;;;;;;5050064;28;20045;-68
2023/09/27 02:02:41;;;;;;;22.70;16.73;;;;;;;;;;5040826;28;20514;-66
2023/09/27 02:05:07;;;;;;;22.17;17.73;;;;;;;;;;5064725;28;20075;-67
2023/09/27 02:07:33;;;;;;;21.70;16.88;;;;;;;;;;5072671;28;20506;-67
2023/09/27 02:09:59;;;;;;;18.45;15.50;;;;;;;;;;5054534;28;20064;-67
2023/09/27 02:12:25;;;;;;;21.60;16.23;;;;;;;;;;5071400;28;20127;-67
2023/09/27 02:14:51;;;;;;;21.30;16.65;;;;;;;;;;5069917;28;20052;-67
2023/09/27 02:17:17;;;;;;;19.73;14.02;;;;;;;;;;5071864;28;20056;-67
2023/09/27 02:19:43;;;;;;;20.85;16.35;;;;;;;;;;5036577;28;20048;-67
2023/09/27 02:22:10;;;;;;;20.40;17.42;;;;;;;;;;5070720;28;20044;-67
2023/09/27 02:24:36;;;;;;;22.55;15.52;;;;;;;;;;5052634;28;20059;-67
2023/09/27 02:27:02;;;;;;;22.67;16.40;;;;;;;;;;5069010;28;20056;-66
2023/09/27 02:29:29;;;;;;;20.85;16.20;;;;;;;;;;5053076;28;20054;-66
2023/09/27 02:31:55;;;;;;;23.20;15.45;;;;;;;;;;5071328;28;20451;-67
2023/09/27 02:34:21;;;;;;;22.15;17.35;;;;;;;;;;5068248;28;20063;-67
2023/09/27 02:36:47;;;;;;;18.60;15.10;;;;;;;;;;5053535;28;20040;-67
2023/09/27 02:39:13;;;;;;;19.92;16.08;;;;;;;;;;5070718;28;20044;-67
2023/09/27 02:41:39;;;;;;;18.17;15.20;;;;;;;;;;5072130;28;20053;-68
2023/09/27 02:44:06;;;;;;;20.50;15.95;;;;;;;;;;5069532;28;20044;-67
2023/09/27 02:46:32;;;;;;;18.02;15.18;;;;;;;;;;5067960;28;20049;-67
2023/09/27 02:48:58;;;;;;;19.63;15.77;;;;;;;;;;5070490;28;20133;-66
2023/09/27 02:51:24;;;;;;;19.17;15.57;;;;;;;;;;5071009;28;20503;-67
2023/09/27 02:53:50;;;;;;;20.77;17.10;;;;;;;;;;5068710;28;20515;-67
2023/09/27 02:56:17;;;;;;;21.90;17.27;;;;;;;;;;5069597;28;20056;-66
2023/09/27 02:58:44;;;;;;;19.27;15.95;;;;;;;;;;5069372;28;20044;-66
2023/09/27 03:01:11;;;;;;;22.67;17.23;;;;;;;;;;5067158;28;20068;-68
2023/09/27 03:03:38;;;;;;;25.80;17.92;;;;;;;;;;5044547;28;20057;-67
2023/09/27 03:06:05;;;;;;;21.55;17.67;;;;;;;;;;5051829;28;20068;-66
2023/09/27 03:08:31;;;;;;;24.33;18.38;;;;;;;;;;5050018;28;20176;-67
2023/09/27 03:10:57;;;;;;;25.55;18.17;;;;;;;;;;5047394;28;20055;-65
2023/09/27 03:13:23;;;;;;;24.30;17.60;;;;;;;;;;5048857;28;20088;-67
2023/09/27 03:15:56;;;;;;;20.27;17.45;;;;;;;;;;5047315;28;20180;-67
2023/09/27 03:18:22;;;;;;;21.95;18.00;;;;;;;;;;5019484;28;20132;-68
2023/09/27 03:20:51;;;;;;;22.50;18.75;;;;;;;;;;5053519;28;20545;-68
2023/09/27 03:23:17;;;;;;;22.85;17.80;;;;;;;;;;5049285;28;20073;-67
2023/09/27 03:25:46;;;;;;;19.67;17.08;;;;;;;;;;5047906;28;20060;-68
2023/09/27 03:28:12;;;;;;;21.30;16.80;;;;;;;;;;5038243;28;20437;-67
2023/09/27 03:30:39;;;;;;;22.35;17.13;;;;;;;;;;5054326;28;20058;-67
2023/09/27 03:33:05;;;;;;;22.80;19.52;;;;;;;;;;5049196;28;20145;-67
2023/09/27 03:35:31;;;;;;;22.35;18.50;;;;;;;;;;5055166;28;20053;-68
2023/09/27 03:37:58;;;;;;;25.35;19.52;;;;;;;;;;5054683;28;20053;-67
2023/09/27 03:40:24;;;;;;;20.73;16.58;;;;;;;;;;5053675;28;20099;-67
2023/09/27 03:42:50;;;;;;;24.15;17.05;;;;;;;;;;5054558;28;20068;-67
2023/09/27 03:45:16;;;;;;;25.95;18.50;;;;;;;;;;5053973;28;20138;-67
2023/09/27 03:47:45;;;;;;;23.00;17.70;;;;;;;;;;5054645;28;20512;-67
2023/09/27 03:50:14;;;;;;;20.35;17.33;;;;;;;;;;5051012;28;20574;-66
2023/09/27 03:52:41;;;;;;;23.75;17.83;;;;;;;;;;5051560;28;20504;-65
2023/09/27 03:55:11;;;;;;;24.80;17.25;;;;;;;;;;5052719;28;20064;-67
2023/09/27 03:57:37;;;;;;;28.43;19.13;;;;;;;;;;5053137;28;20055;-67
2023/09/27 04:00:11;;;;;;;22.50;17.38;;;;;;;;;;5052399;28;20056;-65
2023/09/27 04:02:37;;;;;;;23.23;17.55;;;;;;;;;;5053368;28;20049;-67
2023/09/27 04:05:04;;;;;;;23.00;17.95;;;;;;;;;;5052378;28;20071;-66
2023/09/27 04:07:30;;;;;;;24.27;17.83;;;;;;;;;;5054217;28;20063;-66
2023/09/27 04:09:56;;;;;;;25.90;20.40;;;;;;;;;;5035551;28;20057;-67
2023/09/27 04:12:22;;;;;;;25.42;20.02;;;;;;;;;;5034515;28;20079;-67
2023/09/27 04:14:48;;;;;;;26.98;20.90;;;;;;;;;;5052956;28;20499;-67
2023/09/27 04:17:14;;;;;;;24.73;20.55;;;;;;;;;;5053781;28;20064;-66
2023/09/27 04:19:40;;;;;;;22.90;18.55;;;;;;;;;;5053372;28;20053;-67
2023/09/27 04:22:06;;;;;;;23.33;19.20;;;;;;;;;;5043310;28;20458;-67
2023/09/27 04:24:32;;;;;;;28.58;20.23;;;;;;;;;;5050650;28;20061;-67
2023/09/27 04:26:59;;;;;;;27.73;20.92;;;;;;;;;;5024663;28;20061;-67
2023/09/27 04:29:26;;;;;;;25.70;20.25;;;;;;;;;;5033794;28;20048;-67
2023/09/27 04:31:52;;;;;;;25.95;19.33;;;;;;;;;;5035728;28;20088;-66
2023/09/27 04:34:18;;;;;;;28.77;20.85;;;;;;;;;;5032232;28;20052;-66
2023/09/27 04:36:44;;;;;;;24.33;20.25;;;;;;;;;;5034465;28;20051;-67
2023/09/27 04:39:13;;;;;;;24.88;21.40;;;;;;;;;;5033420;28;20160;-67
2023/09/27 04:41:39;;;;;;;32.40;22.70;;;;;;;;;;5035250;28;20069;-67
2023/09/27 04:44:06;;;;;;;27.95;20.52;;;;;;;;;;5049776;28;20493;-67
2023/09/27 04:46:35;;;;;;;30.45;22.08;;;;;;;;;;5053174;28;20516;-67
2023/09/27 04:49:02;;;;;;;27.25;21.90;;;;;;;;;;5053548;28;20049;-67
2023/09/27 04:51:29;;;;;;;26.88;22.08;;;;;;;;;;5033953;28;20053;-67
2023/09/27 04:54:00;;;;;;;29.55;22.88;;;;;;;;;;5032151;28;20057;-67
2023/09/27 04:56:26;;;;;;;29.92;23.63;;;;;;;;;;5051506;28;20103;-67
2023/09/27 04:58:52;;;;;;;28.92;23.42;;;;;;;;;;5053837;28;20049;-66
2023/09/27 05:01:18;;;;;;;27.67;22.85;;;;;;;;;;5039573;28;20400;-67
2023/09/27 05:03:44;;;;;;;29.00;23.00;;;;;;;;;;5055263;28;20472;-67
2023/09/27 05:06:10;;;;;;;28.63;22.58;;;;;;;;;;5073434;28;20083;-66
2023/09/27 05:08:37;;;;;;;27.05;21.80;;;;;;;;;;5055704;28;20458;-67
2023/09/27 05:11:03;;;;;;;27.55;22.40;;;;;;;;;;5071178;28;20106;-65
2023/09/27 05:13:29;;;;;;;29.50;20.92;;;;;;;;;;5054314;28;20075;-67
2023/09/27 05:15:55;;;;;;;27.83;22.67;;;;;;;;;;5072990;28;20084;-67
2023/09/27 05:18:25;;;;;;;28.58;23.50;;;;;;;;;;5072160;28;20076;-65
2023/09/27 05:20:51;;;;;;;27.77;21.85;;;;;;;;;;5071248;28;20064;-66
2023/09/27 05:23:17;;;;;;;27.55;22.17;;;;;;;;;;5070646;28;20082;-66
2023/09/27 05:25:44;;;;;;;31.48;22.73;;;;;;;;;;5053156;28;20075;-66
2023/09/27 05:28:10;;;;;;;28.30;21.77;;;;;;;;;;5052346;28;20074;-67
2023/09/27 05:30:36;;;;;;;27.65;22.65;;;;;;;;;;5070525;28;20109;-65
2023/09/27 05:33:06;;;;;;;29.30;22.88;;;;;;;;;;5072816;28;20053;-65
2023/09/27 05:35:32;;;;;;;27.57;21.77;;;;;;;;;;5067509;28;20508;-71
2023/09/27 05:37:58;;;;;;;28.40;21.40;;;;;;;;;;5072912;28;20056;-67
2023/09/27 05:40:24;;;;;;;29.23;22.13;;;;;;;;;;5077551;28;20047;-67
2023/09/27 05:42:50;;;;;;;29.30;24.50;;;;;;;;;;5091585;28;20381;-67
2023/09/27 05:45:17;;;;;;;27.45;20.08;;;;;;;;;;5053073;28;20109;-66
2023/09/27 05:47:43;;;;;;;24.38;20.05;;;;;;;;;;5071366;28;20056;-66
2023/09/27 05:50:12;;;;;;;20.17;16.55;;;;;;;;;;5071035;28;20053;-67
2023/09/27 05:52:38;;;;;;;25.85;20.73;;;;;;;;;;5068946;28;20049;-67
2023/09/27 05:55:05;;;;;;;25.13;19.17;;;;;;;;;;5069581;28;20052;-67
2023/09/27 05:57:32;;;;;;;27.88;21.65;;;;;;;;;;5071460;28;20053;-67
2023/09/27 05:59:58;;;;;;;26.27;21.70;;;;;;;;;;5050711;28;20088;-67
2023/09/27 06:02:30;;;;;;;27.10;21.20;;;;;;;;;;5070089;28;20060;-67
2023/09/27 06:04:57;;;;;;;31.05;21.98;;;;;;;;;;5056290;28;20124;-67
2023/09/27 06:07:23;;;;;;;27.77;21.83;;;;;;;;;;5036851;28;20513;-67
2023/09/27 06:09:50;;;;;;;30.35;21.98;;;;;;;;;;5055308;28;20467;-67
2023/09/27 06:12:16;;;;;;;26.23;21.67;;;;;;;;;;5057032;28;20052;-67
2023/09/27 06:14:43;;;;;;;30.48;21.52;;;;;;;;;;5051058;28;20071;-67
2023/09/27 06:17:10;;;;;;;28.40;21.08;;;;;;;;;;5048346;28;20045;-67
2023/09/27 06:19:37;;;;;;;31.13;21.88;;;;;;;;;;5051491;28;20048;-66
2023/09/27 06:22:06;;;;;;;28.92;22.45;;;;;;;;;;5033678;28;20049;-67
2023/09/27 06:24:32;;;;;;;33.45;24.52;;;;;;;;;;5034228;28;20044;-67
2023/09/27 06:26:59;;;;;;;31.23;24.40;;;;;;;;;;5048613;28;20052;-67
2023/09/27 06:29:25;;;;;;;28.83;21.02;;;;;;;;;;5051090;28;20049;-67
2023/09/27 06:31:52;;;;;;;28.10;21.58;;;;;;;;;;5030877;28;20091;-67
2023/09/27 06:34:18;;;;;;;26.88;22.63;;;;;;;;;;5050285;28;20187;-67
2023/09/27 06:36:48;;;;;;;34.53;23.83;;;;;;;;;;5031605;28;20503;-67
2023/09/27 06:39:15;;;;;;;35.35;24.70;;;;;;;;;;5050204;28;20110;-68
2023/09/27 06:41:41;;;;;;;31.08;24.25;;;;;;;;;;5049943;28;20076;-69
2023/09/27 06:44:07;;;;;;;33.60;26.15;;;;;;;;;;5033348;28;20072;-66
2023/09/27 06:46:36;;;;;;;33.88;25.25;;;;;;;;;;5031775;28;20053;-67
2023/09/27 06:49:04;;;;;;;34.25;24.60;;;;;;;;;;5033431;28;20504;-66
2023/09/27 06:51:30;;;;;;;35.10;28.42;;;;;;;;;;5051485;28;20045;-67
2023/09/27 06:53:56;;;;;;;37.70;28.17;;;;;;;;;;5033898;28;20056;-65
2023/09/27 06:56:22;;;;;;;40.35;28.67;;;;;;;;;;5032022;28;20087;-67
2023/09/27 06:58:49;;;;;;;39.53;27.58;;;;;;;;;;5050242;28;20048;-66
2023/09/27 07:01:15;;;;;;;37.38;28.92;;;;;;;;;;5049332;28;20056;-67
2023/09/27 07:03:41;;;;;;;34.10;27.50;;;;;;;;;;5050862;28;20064;-67
2023/09/27 07:06:07;;;;;;;37.28;28.55;;;;;;;;;;5073434;28;20088;-67
2023/09/27 07:08:33;;;;;;;34.25;27.38;;;;;;;;;;5085032;28;20056;-68
2023/09/27 07:11:04;;;;;;;39.08;28.98;;;;;;;;;;5069514;28;20131;-67
2023/09/27 07:13:30;;;;;;;40.60;28.23;;;;;;;;;;5069839;28;20067;-66
2023/09/27 07:15:56;;;;;;;33.50;27.13;;;;;;;;;;5070514;28;20045;-67
2023/09/27 07:18:23;;;;;;;36.17;26.48;;;;;;;;;;5052656;28;20064;-67
2023/09/27 07:20:50;;;;;;;38.22;27.92;;;;;;;;;;5070132;28;20140;-66
2023/09/27 07:23:16;;;;;;;33.17;27.83;;;;;;;;;;5052006;28;20088;-67
2023/09/27 07:25:45;;;;;;;34.42;26.25;;;;;;;;;;5073310;28;20055;-66
2023/09/27 07:28:12;;;;;;;31.17;26.33;;;;;;;;;;5069317;28;20573;-67
2023/09/27 07:30:38;;;;;;;33.53;26.88;;;;;;;;;;5068788;28;20051;-66
2023/09/27 07:33:11;;;;;;;31.58;25.67;;;;;;;;;;5051303;28;20064;-66
2023/09/27 07:35:41;;;;;;;34.40;26.52;;;;;;;;;;5069975;28;20045;-67
2023/09/27 07:38:08;;;;;;;32.95;25.70;;;;;;;;;;5070447;28;20061;-67
2023/09/27 07:40:37;;;;;;;30.48;25.20;;;;;;;;;;5069033;28;20139;-67
2023/09/27 07:43:04;;;;;;;37.60;27.25;;;;;;;;;;5069088;28;20044;-67
2023/09/27 07:45:33;;;;;;;31.55;25.77;;;;;;;;;;5053574;28;20056;-68
2023/09/27 07:48:02;;;;;;;31.48;25.27;;;;;;;;;;5053839;28;20182;-67
2023/09/27 07:50:31;;;;;;;33.28;25.85;;;;;;;;;;5069195;28;20048;-68
2023/09/27 07:52:58;;;;;;;33.78;26.63;;;;;;;;;;5051884;28;20061;-68
2023/09/27 07:55:24;;;;;;;31.58;25.42;;;;;;;;;;5070106;28;20495;-67
2023/09/27 07:57:52;;;;;;;28.95;23.83;;;;;;;;;;5070935;28;20419;-67
2023/09/27 08:00:18;;;;;;;28.52;23.98;;;;;;;;;;5070281;28;20048;-67
2023/09/27 08:02:45;;;;;;;32.53;25.25;;;;;;;;;;5069713;28;20060;-67
2023/09/27 08:05:14;;;;;;;29.88;25.33;;;;;;;;;;5054548;28;20060;-67
2023/09/27 08:07:40;;;;;;;29.42;24.17;;;;;;;;;;5049452;28;20045;-69
2023/09/27 08:10:06;;;;;;;34.05;24.35;;;;;;;;;;5036861;28;20075;-67
2023/09/27 08:12:34;;;;;;;31.63;23.50;;;;;;;;;;5018812;28;20069;-67
2023/09/27 08:15:01;;;;;;;33.92;23.20;;;;;;;;;;5054145;28;20140;-68
2023/09/27 08:17:27;;;;;;;33.13;23.55;;;;;;;;;;5054319;28;20060;-68
2023/09/27 08:19:53;;;;;;;28.58;22.73;;;;;;;;;;5036485;28;20085;-68
2023/09/27 08:22:19;;;;;;;32.78;24.25;;;;;;;;;;5051811;28;20131;-68
2023/09/27 08:24:45;;;;;;;28.27;22.23;;;;;;;;;;5054186;28;20053;-68
2023/09/27 08:27:12;;;;;;;29.27;22.63;;;;;;;;;;5054085;28;20053;-68
2023/09/27 08:29:38;;;;;;;28.73;22.48;;;;;;;;;;5065091;28;20048;-68
2023/09/27 08:32:08;;;;;;;25.92;20.98;;;;;;;;;;5066757;28;20059;-69
2023/09/27 08:34:34;;;;;;;28.73;22.70;;;;;;;;;;5050958;28;20119;-69
2023/09/27 08:37:00;;;;;;;27.63;22.92;;;17.80;99.90;;;;;;5035845;28;20405;-69
2023/09/27 08:39:30;;;;;;;30.45;23.15;;;;;;;;;;5052844;28;20045;-69
2023/09/27 08:41:58;;;;;;;28.38;21.50;;;;;;;;;;5018628;28;20068;-67
2023/09/27 08:44:24;;;;;;;26.25;21.98;;;;;;;;;;5058817;28;20119;-69
2023/09/27 08:46:50;;;;;;;30.92;22.45;;;;;;;;;;5036258;28;20048;-68
2023/09/27 08:49:17;;;;;;;28.75;21.77;;;;;;;;;;5055047;28;20052;-68
2023/09/27 08:51:45;;;;;;;24.75;19.95;;;18.70;99.90;;;;;;5042621;28;20049;-70
2023/09/27 08:54:16;;;;;;;28.63;22.17;;;19.10;99.90;;;;;;5033331;28;20103;-69
2023/09/27 08:56:47;;;;;;;27.63;21.52;;;18.70;99.90;;;;;;5050115;28;20079;-67
2023/09/27 08:59:13;;;;;;;26.33;20.92;;;19.20;99.90;;;;;;5030081;28;20047;-69
2023/09/27 09:01:43;;;;;;;27.52;21.75;;;19.00;99.90;;;;;;5036387;28;20052;-72
2023/09/27 09:04:09;;;;;;;27.27;19.73;;;;;;;;;;5059791;28;20053;-70
2023/09/27 09:06:35;;;;;;;23.00;19.30;;;;;;;;;;5072623;28;20201;-72
2023/09/27 09:09:11;;;;;;;26.42;20.48;;;;;;;;;;5087568;28;20427;-70
2023/09/27 09:11:38;;;;;;;24.98;18.90;;;19.50;99.90;;;;;;5082671;28;20147;-73
2023/09/27 09:14:04;;;;;;;25.92;18.88;;;19.70;99.90;;;;;;5070883;28;20135;-64
2023/09/27 09:16:39;;;;;;;21.98;18.80;;;;;;;;;;5071801;28;20128;-64
2023/09/27 09:19:25;;;;;;;25.48;18.05;;;19.90;99.90;;;;;;5073013;28;20048;-64
2023/09/27 09:22:03;;;;;;;26.20;17.90;;;;;;;;;;5072762;28;20052;-64
2023/09/27 09:24:31;;;;;;;25.95;17.98;;;;;;;;;;5054041;28;20049;-65
2023/09/27 09:27:16;;;;;;;27.17;18.40;;;19.80;99.90;;;;;;5073445;28;20052;-64
2023/09/27 09:29:49;;;;;;;25.23;18.80;;;;;;;;;;5055368;28;20481;-64
2023/09/27 09:32:17;;;;;;;25.38;17.77;;;;;;;;;;5072233;28;20045;-64
2023/09/27 09:34:45;;;;;;;24.27;17.98;;;19.50;99.90;;;;;;5071778;28;20079;-64
2023/09/27 09:37:21;;;;;;;20.65;16.33;;;;;;;;;;5075365;28;20055;-65
2023/09/27 09:39:51;;;;;;;24.20;17.33;;;;;;;;;;5042351;28;20123;-65
2023/09/27 09:42:33;;;;;;;;;;;20.00;99.90;;;;;;5057035;28;20064;-65
2023/09/27 09:45:06;;;;;;;23.50;16.50;;;20.10;99.90;;;;;;5074273;28;19943;-64
2023/09/27 09:47:34;;;;;;;22.85;16.85;;;;;;;;;;5052298;28;20053;-64
2023/09/27 09:50:00;;;;;;;20.88;15.32;;;20.30;99.90;;;;;;5085476;28;20045;-65
2023/09/27 09:52:29;;;;;;;19.77;15.13;;;20.30;99.90;;;;;;5067451;28;20059;-64
2023/09/27 09:54:57;;;;;;;24.00;15.63;;;20.30;99.90;;;;;;5031235;28;20060;-64
2023/09/27 09:57:35;;;;;;;19.67;15.75;;;20.20;99.90;;;;;;5072369;28;20060;-64
2023/09/27 10:00:25;;;;;;;24.38;15.20;;;;;;;;;;5053135;28;20055;-64
2023/09/27 10:03:02;;;;;;;23.80;15.05;;;;;;;;;;5081856;28;20056;-64
2023/09/27 10:05:37;;;;;;;20.73;13.55;;;;;;;;;;5071778;28;20048;-64
2023/09/27 10:08:04;;;;;;;22.33;14.35;;;;;;;;;;5054563;28;20060;-63
2023/09/27 10:10:30;;;;;;;22.23;14.18;;;;;;;;;;5070450;28;20523;-64
2023/09/27 10:12:58;;;;;;;21.13;14.10;;;;;;;;;;5033945;28;20061;-63
2023/09/27 10:15:25;;;;;;;24.13;13.73;;;20.00;99.90;;;;;;5034407;28;20377;-64
2023/09/27 10:17:52;;;;;;;22.15;13.82;;;;;;;;;;5063388;28;20080;-65
2023/09/27 10:20:22;;;;;;;19.40;12.32;;;;;;;;;;5070138;28;20416;-64
2023/09/27 10:22:49;;;;;;;23.67;13.00;;;;;;;;;;5066205;28;20107;-65
2023/09/27 10:25:23;;;;;;;19.95;12.10;;;20.20;99.90;;;;;;5034009;28;20171;-64
2023/09/27 10:28:01;;;;;;;16.80;11.32;;;;;;;;;;5067982;28;20500;-64
2023/09/27 10:30:45;;;;;;;20.65;10.68;;;;;;;;;;5070252;28;20052;-64
2023/09/27 10:33:17;;;;;;;17.67;9.23;;;;;;;;;;5050923;28;20092;-64
2023/09/27 10:36:03;;;;;;;14.35;9.00;;;20.30;99.90;;;;;;5053844;28;20139;-66
2023/09/27 10:38:41;;;;;;;12.98;8.25;;;;;;;;;;5078926;28;20052;-64
2023/09/27 10:41:08;;;;;;;17.88;8.43;;;20.30;99.90;;;;;;5069817;28;20064;-65
2023/09/27 10:43:38;;;;;;;16.13;9.05;;;20.60;99.90;;;;;;5086507;28;20052;-64
2023/09/27 10:46:04;;;;;;;13.80;9.05;;;;;;;;;;5076959;28;20139;-64
2023/09/27 10:48:34;;;;;;;20.70;8.50;;;20.40;99.90;;;;;;5052635;28;20052;-64
2023/09/27 10:51:00;;;;;;;14.63;8.80;;;;;;;;;;5050514;28;20107;-63
2023/09/27 10:53:26;;;;;;;18.55;8.75;;;;;;;;;;5071125;28;20102;-64
2023/09/27 10:55:53;;;;;;;12.40;8.60;;;;;;;;;;5053588;28;20056;-64
2023/09/27 10:58:19;;;;;;;17.75;9.65;;;20.80;99.90;;;;;;5049211;28;20071;-64
2023/09/27 11:00:55;;;;;;;17.38;9.15;;;;;;;;;;5050107;28;20075;-64
2023/09/27 11:03:23;;;;;;;19.27;8.57;;;;;;;;;;5046904;28;20052;-64
2023/09/27 11:05:50;;;;;;;16.83;9.25;;;;;;;;;;5048857;28;20064;-64
2023/09/27 11:08:25;;;;;;;16.95;9.82;;;;;;;;;;5028863;28;20052;-64
2023/09/27 11:10:56;;;;;;;16.88;8.75;;;20.70;99.90;;;;;;5048118;28;20072;-64
2023/09/27 11:13:24;;;;;;;21.98;9.40;;;;;;;;;;5032952;28;20053;-63
2023/09/27 11:15:50;;;;;;;18.48;9.23;;;;;;;;;;5032934;28;20122;-64
2023/09/27 11:18:16;;;;;;;17.08;9.43;;;;;;;;;;5048768;28;20501;-64
2023/09/27 11:20:43;;;;;;;14.85;9.23;;;;;;;;;;5028228;28;20503;-64
2023/09/27 11:23:09;;;;;;;19.50;8.88;;;;;;;;;;5049311;28;20055;-64
2023/09/27 11:25:37;;;;;;;13.75;8.75;;;;;;;;;;5046172;28;20056;-62
2023/09/27 11:28:03;;;;;;;18.50;8.32;;;;;;;;;;5042885;28;20049;-63
2023/09/27 11:30:31;;;;;;;13.70;9.05;;;21.10;99.90;;;;;;5041914;28;20059;-64
2023/09/27 11:32:58;;;;;;;12.75;8.95;;;;;;;;;;5030939;28;20159;-63
2023/09/27 11:35:28;;;;;;;15.73;9.15;;;;;;;;;;5030689;28;20489;-62
2023/09/27 11:38:07;;;;;;;15.65;9.07;;;21.00;99.90;;;;;;5042133;28;20049;-63
2023/09/27 11:40:37;;;;;;;13.80;8.82;;;21.00;99.90;;;;;;5046245;28;20053;-63
2023/09/27 11:43:04;;;;;;;16.58;8.38;;;21.30;99.90;;;;;;5031129;28;20131;-63
2023/09/27 11:46:03;;;;;;;15.07;9.23;;;;;;;;;;5047510;28;20053;-63
2023/09/27 11:48:34;;;;;;;18.63;9.63;;;;;;;;;;5012083;28;20053;-63
2023/09/27 11:51:00;;;;;;;15.65;10.02;;;;;;;;;;5047328;28;20049;-63
2023/09/27 11:53:27;;;;;;;15.38;9.48;;;;;;;;;;5028948;28;20071;-64
2023/09/27 11:55:55;;;;;;;13.48;8.73;;;;;;;;;;5030035;28;20057;-63
2023/09/27 11:58:22;;;;;;;16.92;9.43;;;;;;;;;;5030380;28;20060;-63
2023/09/27 12:00:48;;;;;;;15.63;9.27;;;;;;;;;;5031303;28;20101;-62
2023/09/27 12:03:14;;;;;;;15.90;9.43;;;;;;;;;;5026454;28;20065;-63
2023/09/27 12:05:40;;;;;;;15.50;9.15;;;;;;;;;;5053098;28;20053;-63
2023/09/27 12:08:08;;;;;;;12.57;9.43;;;;;;;;;;5053863;28;20052;-65
2023/09/27 12:10:34;;;;;;;12.10;8.65;;;;;;;;;;5067679;28;20126;-64
2023/09/27 12:13:00;;;;;;;12.90;9.43;;;;;;;;;;5056562;28;20071;-64
2023/09/27 12:15:26;;;;;;;12.30;8.90;;;22.00;99.90;;;;;;5054984;28;20053;-65
2023/09/27 12:17:53;;;;;;;12.90;8.25;;;;;;;;;;5040150;28;20144;-64
2023/09/27 12:20:19;;;;;;;12.32;7.30;;;22.20;99.90;;;;;;5074224;28;20135;-64
2023/09/27 12:22:45;;;;;;;15.43;9.35;;;;;;;;;;5074182;28;20091;-64
2023/09/27 12:25:11;;;;;;;13.85;8.27;;;;;;;;;;5073638;28;20049;-63
2023/09/27 12:27:37;;;;;;;14.48;8.10;;;;;;;;;;5074093;28;20056;-64
2023/09/27 12:30:05;;;;;;;15.07;9.13;;;23.00;99.90;;;;;;5073425;28;20052;-64
2023/09/27 12:32:31;;;;;;;13.88;9.30;;;;;;;;;;5068556;28;20095;-65
2023/09/27 12:34:57;;;;;;;14.85;8.38;;;;;;;;;;5076415;28;20055;-64
2023/09/27 12:37:22;;;;;;;13.73;7.95;;;22.70;99.90;;;;;;5072809;28;20218;-65
2023/09/27 12:39:48;;;;;;;11.80;8.02;;;;;;;;;;5055441;28;20213;-64
2023/09/27 12:42:15;;;;;;;15.60;8.88;;;;;;;;;;5072963;28;20060;-64
2023/09/27 12:44:41;;;;;;;15.73;8.77;;;;;;;;;;5055760;28;20127;-64
2023/09/27 12:47:07;;;;;;;13.73;9.68;;;;;;;;;;5072854;28;20106;-64
2023/09/27 12:49:33;;;;;;;13.43;10.05;;;;;;;;;;5063497;28;20141;-64
2023/09/27 12:51:59;;;;;;;11.85;8.88;;;;;;;;;;5047984;28;20074;-64
2023/09/27 12:54:24;;;;;;;15.77;9.65;;;23.60;99.90;;;;;;5055975;28;20110;-64
2023/09/27 12:56:50;;;;;;;14.57;9.75;;;23.60;99.90;;;;;;5088899;28;20416;-64
2023/09/27 12:59:16;;;;;;;11.30;8.43;;;;;;;;;;5071184;28;20155;-64
2023/09/27 13:01:42;;;;;;;14.15;8.63;;;;;;;;;;5073129;28;20056;-64
2023/09/27 13:04:09;;;;;;;11.90;8.32;;;;;;;;;;5075866;28;20052;-67
2023/09/27 13:06:35;;;;;;;13.25;8.40;;;;;;;;;;5033301;28;20090;-62
2023/09/27 13:09:01;;;;;;;15.65;9.98;;;;;;;;;;5050201;28;20091;-63
2023/09/27 13:11:27;;;;;;;12.68;8.82;;;23.80;99.90;;;;;;5043940;28;20145;-63
2023/09/27 13:13:53;;;;;;;11.57;7.50;;;;;;;;;;5038669;28;20124;-62
2023/09/27 13:16:23;;;;;;;9.48;6.30;;;;;;;;;;5052002;28;20045;-63
2023/09/27 13:18:50;;;;;;;;;;;24.00;99.90;;;;;;5035841;28;20071;-62
2023/09/27 13:21:17;;;;;;;8.88;6.00;;;;;;;;;;5036208;28;19964;-62
2023/09/27 13:23:43;;;;;;;10.85;5.70;;;;;;;;;;5043776;28;20049;-61
2023/09/27 13:26:09;;;;;;;10.40;5.43;;;;;;;;;;5017286;28;20049;-64
2023/09/27 13:28:35;;;;;;;7.28;4.70;;;;;;;;;;5030079;28;20052;-63
2023/09/27 13:31:02;;;;;;;11.65;6.63;;;;;;;;;;5036757;28;20080;-64
2023/09/27 13:33:29;;;;;;;9.02;5.43;;;;;;;;;;5029896;28;20091;-64
2023/09/27 13:35:58;;;;;;;11.07;5.80;;;;;;;;;;5046094;28;20053;-63
2023/09/27 13:38:25;;;;;;;7.93;4.90;;;23.60;99.90;;;;;;5052038;28;20049;-63
2023/09/27 13:40:51;;;;;;;8.82;5.78;;;23.80;99.90;;;;;;5018238;28;20158;-66
2023/09/27 13:43:17;;;;;;;7.18;5.53;;;23.80;99.90;;;;;;5049043;28;20112;-66
2023/09/27 13:45:43;;;;;;;9.65;5.47;;;;;;;;;;5034133;28;20115;-65
2023/09/27 13:48:09;;;;;;;7.50;6.28;;;;;;;;;;5017857;28;20056;-68
2023/09/27 13:50:35;;;;;;;10.52;6.07;;;23.60;99.90;;;;;;5035394;28;20053;-65
2023/09/27 13:53:02;;;;;;;10.48;6.35;;;;;;;;;;5035042;28;20069;-67
2023/09/27 13:55:28;;;;;;;8.63;5.65;;;;;;;;;;5034311;28;20061;-67
2023/09/27 13:57:55;;;;;;;7.25;5.93;;;;;;;;;;5051823;28;20085;-66
2023/09/27 14:00:22;;;;;;;8.57;5.60;;;;;;;;;;5017412;28;20045;-66
2023/09/27 14:02:48;;;;;;;11.43;5.10;;;23.60;99.90;;;;;;5017116;28;20056;-66
2023/09/27 14:05:14;;;;;;;9.10;4.68;;;;;;;;;;5021213;28;20056;-66
2023/09/27 14:07:42;;;;;;;9.10;5.43;;;23.70;99.90;;;;;;5047209;28;20053;-66